EJU53RD LFMN-LMML
Flight info
| Callsign | EJU53RD |
|---|---|
| Flight time | N/A |
| Altitude | 33000 |
| Route | VAREK7B VAREK DCT LOKDU DCT PELOS DCT IPROM DCT SENTI DCT UPLIT M732 GZO DCT |
| Aircraft | A32N/M-V/N |
Departure
| Time | 2026-05-04 13:36 |
|---|---|
| Airport | Nice-Côte d'Azur Airport (LFMN) |
Arrival
| Time | N/A |
|---|---|
| Airport | Malta International Airport (LMML) |
| Time | Latitude | Longitude | Altitude | Speed | Heading |
|---|---|---|---|---|---|
| 2026-05-04 13:12 | 43.66170 | 7.20675 | 22 ft | 0 kts | 261° |
| 2026-05-04 13:13 | 43.65836 | 7.20584 | 24 ft | 0 kts | 326° |
| 2026-05-04 13:27 | 43.65834 | 7.20586 | 21 ft | 1 kts | 326° |
| 2026-05-04 13:27 | 43.65820 | 7.20600 | 25 ft | 3 kts | 321° |
| 2026-05-04 13:28 | 43.65805 | 7.20618 | 24 ft | 3 kts | 314° |
| 2026-05-04 13:28 | 43.65792 | 7.20640 | 22 ft | 3 kts | 297° |
| 2026-05-04 13:28 | 43.65785 | 7.20663 | 24 ft | 3 kts | 253° |
| 2026-05-04 13:28 | 43.65788 | 7.20674 | 23 ft | 0 kts | 224° |
| 2026-05-04 13:31 | 43.65787 | 7.20672 | 23 ft | 1 kts | 224° |
| 2026-05-04 13:31 | 43.65746 | 7.20616 | 22 ft | 13 kts | 225° |
| 2026-05-04 13:31 | 43.65669 | 7.20511 | 22 ft | 18 kts | 225° |
| 2026-05-04 13:31 | 43.65574 | 7.20380 | 22 ft | 21 kts | 225° |
| 2026-05-04 13:32 | 43.65466 | 7.20230 | 22 ft | 23 kts | 224° |
| 2026-05-04 13:32 | 43.65344 | 7.20215 | 22 ft | 19 kts | 137° |
| 2026-05-04 13:32 | 43.65247 | 7.20338 | 22 ft | 19 kts | 134° |
| 2026-05-04 13:32 | 43.65148 | 7.20467 | 22 ft | 19 kts | 149° |
| 2026-05-04 13:33 | 43.65033 | 7.20410 | 24 ft | 20 kts | 227° |
| 2026-05-04 13:33 | 43.64922 | 7.20271 | 22 ft | 23 kts | 222° |
| 2026-05-04 13:33 | 43.64797 | 7.20136 | 22 ft | 22 kts | 171° |
| 2026-05-04 13:33 | 43.64762 | 7.20158 | 24 ft | 0 kts | 145° |
| 2026-05-04 13:34 | 43.64760 | 7.20160 | 24 ft | 2 kts | 144° |
| 2026-05-04 13:34 | 43.64734 | 7.20190 | 25 ft | 8 kts | 135° |
| 2026-05-04 13:34 | 43.64703 | 7.20264 | 24 ft | 10 kts | 95° |
| 2026-05-04 13:35 | 43.64718 | 7.20308 | 22 ft | 1 kts | 45° |
| 2026-05-04 13:35 | 43.65016 | 7.20729 | 22 ft | 83 kts | 46° |
| 2026-05-04 13:35 | 43.65530 | 7.21440 | 27 ft | 126 kts | 47° |
| 2026-05-04 13:36 | 43.66203 | 7.22324 | 310 ft | 139 kts | 52° |
| 2026-05-04 13:36 | 43.66458 | 7.23550 | 859 ft | 135 kts | 101° |
| 2026-05-04 13:36 | 43.65904 | 7.24674 | 1166 ft | 153 kts | 133° |
| 2026-05-04 13:36 | 43.65128 | 7.25568 | 1872 ft | 138 kts | 137° |
| 2026-05-04 13:37 | 43.64389 | 7.26366 | 2352 ft | 139 kts | 140° |
| 2026-05-04 13:37 | 43.63602 | 7.27259 | 2549 ft | 154 kts | 131° |
| 2026-05-04 13:37 | 43.62924 | 7.28480 | 2775 ft | 168 kts | 122° |
| 2026-05-04 13:37 | 43.62477 | 7.29409 | 2871 ft | 184 kts | 122° |
| 2026-05-04 13:38 | 43.61406 | 7.31499 | 3407 ft | 213 kts | 124° |
| 2026-05-04 13:38 | 43.60449 | 7.33096 | 4373 ft | 216 kts | 138° |
| 2026-05-04 13:38 | 43.59095 | 7.33990 | 5455 ft | 221 kts | 169° |
| 2026-05-04 13:38 | 43.57599 | 7.33867 | 6816 ft | 210 kts | 184° |
| 2026-05-04 13:39 | 43.56165 | 7.33611 | 7864 ft | 209 kts | 184° |
| 2026-05-04 13:39 | 43.54690 | 7.33370 | 8617 ft | 219 kts | 185° |
| 2026-05-04 13:39 | 43.53166 | 7.33130 | 9463 ft | 220 kts | 186° |
| 2026-05-04 13:39 | 43.51631 | 7.32888 | 10291 ft | 226 kts | 187° |
| 2026-05-04 13:40 | 43.50030 | 7.32635 | 10898 ft | 239 kts | 187° |
| 2026-05-04 13:40 | 43.48302 | 7.32358 | 11310 ft | 263 kts | 187° |
| 2026-05-04 13:40 | 43.46401 | 7.32050 | 11752 ft | 286 kts | 187° |
| 2026-05-04 13:40 | 43.44326 | 7.31722 | 12066 ft | 313 kts | 187° |
| 2026-05-04 13:41 | 43.42111 | 7.31368 | 12662 ft | 327 kts | 188° |
| 2026-05-04 13:41 | 43.39817 | 7.31002 | 13322 ft | 334 kts | 188° |
| 2026-05-04 13:41 | 43.37486 | 7.30632 | 14037 ft | 341 kts | 188° |
| 2026-05-04 13:42 | 43.32742 | 7.29875 | 15536 ft | 345 kts | 188° |
| 2026-05-04 13:42 | 43.30328 | 7.29831 | 16237 ft | 353 kts | 174° |
| 2026-05-04 13:42 | 43.27964 | 7.30836 | 16974 ft | 362 kts | 156° |
| 2026-05-04 13:42 | 43.25903 | 7.32901 | 17669 ft | 374 kts | 137° |
| 2026-05-04 13:43 | 43.24215 | 7.35656 | 18341 ft | 380 kts | 132° |
| 2026-05-04 13:43 | 43.22563 | 7.38511 | 18919 ft | 385 kts | 132° |
| 2026-05-04 13:43 | 43.20896 | 7.41401 | 19479 ft | 389 kts | 132° |
| 2026-05-04 13:43 | 43.19199 | 7.44320 | 20040 ft | 393 kts | 132° |
| 2026-05-04 13:44 | 43.17478 | 7.47262 | 20562 ft | 399 kts | 132° |
| 2026-05-04 13:44 | 43.15729 | 7.50235 | 21108 ft | 403 kts | 132° |
| 2026-05-04 13:44 | 43.13956 | 7.53239 | 21669 ft | 407 kts | 132° |
| 2026-05-04 13:44 | 43.12127 | 7.56216 | 22201 ft | 410 kts | 137° |
| 2026-05-04 13:45 | 43.09960 | 7.58739 | 22729 ft | 409 kts | 149° |
| 2026-05-04 13:45 | 43.07471 | 7.60618 | 23211 ft | 409 kts | 161° |
| 2026-05-04 13:45 | 43.04796 | 7.61963 | 23729 ft | 412 kts | 164° |
| 2026-05-04 13:45 | 43.02092 | 7.63291 | 24215 ft | 414 kts | 164° |
| 2026-05-04 13:46 | 42.99374 | 7.64636 | 24705 ft | 417 kts | 164° |
| 2026-05-04 13:46 | 42.96640 | 7.65992 | 25166 ft | 420 kts | 165° |
| 2026-05-04 13:46 | 42.93888 | 7.67358 | 25612 ft | 423 kts | 165° |
| 2026-05-04 13:46 | 42.91117 | 7.68733 | 26078 ft | 425 kts | 165° |
| 2026-05-04 13:47 | 42.88330 | 7.70114 | 26526 ft | 427 kts | 165° |
| 2026-05-04 13:47 | 42.85526 | 7.71503 | 26962 ft | 430 kts | 165° |
| 2026-05-04 13:47 | 42.82706 | 7.72897 | 27381 ft | 433 kts | 165° |
| 2026-05-04 13:47 | 42.79903 | 7.74281 | 27795 ft | 435 kts | 166° |
| 2026-05-04 13:48 | 42.77016 | 7.75705 | 28200 ft | 437 kts | 166° |
| 2026-05-04 13:48 | 42.74149 | 7.77118 | 28615 ft | 439 kts | 166° |
| 2026-05-04 13:48 | 42.72247 | 7.78055 | 28884 ft | 440 kts | 166° |
| 2026-05-04 13:48 | 42.69358 | 7.79476 | 29240 ft | 443 kts | 166° |
| 2026-05-04 13:49 | 42.66453 | 7.80904 | 29590 ft | 445 kts | 166° |
| 2026-05-04 13:49 | 42.63534 | 7.82337 | 29957 ft | 447 kts | 166° |
| 2026-05-04 13:49 | 42.60604 | 7.83774 | 30284 ft | 449 kts | 166° |
| 2026-05-04 13:49 | 42.57659 | 7.85217 | 30607 ft | 451 kts | 167° |
| 2026-05-04 13:50 | 42.54702 | 7.86665 | 30932 ft | 453 kts | 167° |
| 2026-05-04 13:50 | 42.51737 | 7.88115 | 31275 ft | 453 kts | 167° |
| 2026-05-04 13:50 | 42.48774 | 7.89565 | 31692 ft | 452 kts | 167° |
| 2026-05-04 13:50 | 42.45814 | 7.91012 | 32125 ft | 451 kts | 168° |
| 2026-05-04 13:51 | 42.42867 | 7.92452 | 32550 ft | 449 kts | 168° |
| 2026-05-04 13:51 | 42.39931 | 7.93883 | 32928 ft | 448 kts | 168° |
| 2026-05-04 13:51 | 42.37003 | 7.95308 | 33041 ft | 446 kts | 168° |
| 2026-05-04 13:51 | 42.34087 | 7.96719 | 33034 ft | 444 kts | 169° |
| 2026-05-04 13:52 | 42.28148 | 7.98611 | 33037 ft | 433 kts | 181° |
| 2026-05-04 13:52 | 42.25165 | 7.99068 | 33036 ft | 431 kts | 182° |
| 2026-05-04 13:53 | 42.19202 | 7.99983 | 33038 ft | 432 kts | 182° |
| 2026-05-04 13:53 | 42.13239 | 8.00917 | 33035 ft | 431 kts | 182° |
| 2026-05-04 13:54 | 42.04296 | 8.02318 | 33031 ft | 431 kts | 182° |
| 2026-05-04 13:55 | 41.95349 | 8.03717 | 33032 ft | 431 kts | 182° |
| 2026-05-04 13:55 | 41.86438 | 8.05132 | 33015 ft | 432 kts | 182° |
| 2026-05-04 13:56 | 41.80466 | 8.06078 | 33027 ft | 433 kts | 182° |
| 2026-05-04 13:57 | 41.71484 | 8.07495 | 33035 ft | 434 kts | 182° |
| 2026-05-04 13:58 | 41.59456 | 8.09385 | 33034 ft | 436 kts | 181° |
| 2026-05-04 13:58 | 41.50401 | 8.10806 | 33042 ft | 437 kts | 181° |
| 2026-05-04 13:59 | 41.44359 | 8.11751 | 33025 ft | 438 kts | 181° |
| 2026-05-04 14:00 | 41.35271 | 8.13171 | 33034 ft | 439 kts | 181° |
| 2026-05-04 14:00 | 41.26169 | 8.14589 | 33027 ft | 439 kts | 181° |
| 2026-05-04 14:01 | 41.20101 | 8.15580 | 33039 ft | 443 kts | 178° |
| 2026-05-04 14:01 | 41.14111 | 8.18047 | 33033 ft | 460 kts | 163° |
| 2026-05-04 14:02 | 41.11278 | 8.20087 | 33042 ft | 468 kts | 156° |
| 2026-05-04 14:02 | 41.06039 | 8.25395 | 33044 ft | 479 kts | 146° |
| 2026-05-04 14:03 | 41.01113 | 8.31325 | 33037 ft | 477 kts | 144° |
| 2026-05-04 14:03 | 40.96201 | 8.37244 | 33042 ft | 479 kts | 145° |
| 2026-05-04 14:04 | 40.88781 | 8.46070 | 33042 ft | 478 kts | 145° |
| 2026-05-04 14:04 | 40.83830 | 8.51928 | 33045 ft | 478 kts | 145° |
| 2026-05-04 14:05 | 40.76401 | 8.60690 | 33053 ft | 477 kts | 145° |
| 2026-05-04 14:06 | 40.71478 | 8.66483 | 33054 ft | 477 kts | 145° |
| 2026-05-04 14:06 | 40.66517 | 8.72306 | 33044 ft | 478 kts | 145° |
| 2026-05-04 14:07 | 40.61554 | 8.78119 | 33039 ft | 478 kts | 145° |
| 2026-05-04 14:07 | 40.56581 | 8.83932 | 33021 ft | 478 kts | 144° |
| 2026-05-04 14:08 | 40.51613 | 8.89723 | 33035 ft | 478 kts | 144° |
| 2026-05-04 14:08 | 40.46637 | 8.95516 | 33042 ft | 478 kts | 144° |
| 2026-05-04 14:09 | 40.39162 | 9.04195 | 33048 ft | 478 kts | 144° |
| 2026-05-04 14:10 | 40.31669 | 9.12869 | 33039 ft | 480 kts | 144° |
| 2026-05-04 14:10 | 40.26662 | 9.18651 | 33044 ft | 480 kts | 144° |
| 2026-05-04 14:11 | 40.21640 | 9.24438 | 33059 ft | 481 kts | 144° |
| 2026-05-04 14:11 | 40.14091 | 9.33114 | 33066 ft | 482 kts | 144° |
| 2026-05-04 14:12 | 40.09048 | 9.38896 | 33052 ft | 482 kts | 144° |
| 2026-05-04 14:13 | 40.01471 | 9.47559 | 33080 ft | 484 kts | 144° |
| 2026-05-04 14:13 | 39.98926 | 9.50463 | 33320 ft | 487 kts | 144° |
| 2026-05-04 14:13 | 39.96372 | 9.53373 | 33724 ft | 487 kts | 144° |
| 2026-05-04 14:13 | 39.93857 | 9.56239 | 34026 ft | 486 kts | 144° |
| 2026-05-04 14:14 | 39.91311 | 9.59135 | 34178 ft | 487 kts | 144° |
| 2026-05-04 14:14 | 39.86209 | 9.64932 | 34758 ft | 487 kts | 144° |
| 2026-05-04 14:14 | 39.83653 | 9.67828 | 34967 ft | 488 kts | 143° |
| 2026-05-04 14:15 | 39.78515 | 9.73644 | 35420 ft | 490 kts | 143° |
| 2026-05-04 14:15 | 39.73336 | 9.79501 | 35914 ft | 490 kts | 144° |
| 2026-05-04 14:16 | 39.68218 | 9.85271 | 36081 ft | 491 kts | 143° |
| 2026-05-04 14:16 | 39.65639 | 9.88176 | 36075 ft | 491 kts | 143° |
| 2026-05-04 14:17 | 39.57872 | 9.96902 | 36060 ft | 490 kts | 143° |
| 2026-05-04 14:18 | 39.50132 | 10.05574 | 36063 ft | 490 kts | 143° |
| 2026-05-04 14:19 | 39.39805 | 10.17102 | 36065 ft | 490 kts | 143° |
| 2026-05-04 14:19 | 39.34642 | 10.22845 | 36054 ft | 489 kts | 143° |
| 2026-05-04 14:20 | 39.29483 | 10.28575 | 36061 ft | 489 kts | 143° |
| 2026-05-04 14:20 | 39.24319 | 10.34300 | 36057 ft | 489 kts | 143° |
| 2026-05-04 14:21 | 39.19161 | 10.40006 | 35953 ft | 487 kts | 143° |
| 2026-05-04 14:21 | 39.16598 | 10.42837 | 35532 ft | 485 kts | 143° |
| 2026-05-04 14:21 | 39.14035 | 10.45666 | 34940 ft | 485 kts | 143° |
| 2026-05-04 14:21 | 39.11475 | 10.48486 | 34265 ft | 485 kts | 143° |
| 2026-05-04 14:22 | 39.08909 | 10.51311 | 33478 ft | 486 kts | 143° |
| 2026-05-04 14:22 | 39.06350 | 10.54127 | 33151 ft | 484 kts | 143° |
| 2026-05-04 14:22 | 39.01145 | 10.59838 | 33065 ft | 496 kts | 142° |
| 2026-05-04 14:23 | 38.93291 | 10.68448 | 33063 ft | 495 kts | 143° |
| 2026-05-04 14:24 | 38.88051 | 10.74176 | 33068 ft | 495 kts | 143° |
| 2026-05-04 14:24 | 38.82848 | 10.79853 | 33066 ft | 493 kts | 143° |
| 2026-05-04 14:25 | 38.77628 | 10.85535 | 33058 ft | 492 kts | 143° |
| 2026-05-04 14:25 | 38.69806 | 10.94027 | 33051 ft | 491 kts | 143° |
| 2026-05-04 14:26 | 38.64595 | 10.99672 | 33049 ft | 490 kts | 143° |
| 2026-05-04 14:26 | 38.59389 | 11.05300 | 33029 ft | 490 kts | 143° |
| 2026-05-04 14:27 | 38.54191 | 11.10911 | 33061 ft | 489 kts | 143° |
| 2026-05-04 14:27 | 38.48987 | 11.16514 | 33058 ft | 489 kts | 143° |
| 2026-05-04 14:28 | 38.43783 | 11.22107 | 33057 ft | 489 kts | 143° |
| 2026-05-04 14:28 | 38.38573 | 11.27696 | 33057 ft | 489 kts | 143° |
| 2026-05-04 14:29 | 38.28117 | 11.38878 | 33073 ft | 491 kts | 143° |
| 2026-05-04 14:30 | 38.22875 | 11.44468 | 33078 ft | 492 kts | 143° |
| 2026-05-04 14:31 | 38.15010 | 11.52835 | 33079 ft | 491 kts | 143° |
| 2026-05-04 14:32 | 38.05409 | 11.63014 | 33090 ft | 490 kts | 143° |
| 2026-05-04 14:32 | 38.00167 | 11.68558 | 33074 ft | 490 kts | 143° |
| 2026-05-04 14:33 | 37.94925 | 11.74091 | 33065 ft | 491 kts | 143° |
| 2026-05-04 14:33 | 37.89674 | 11.79622 | 33078 ft | 491 kts | 143° |
| 2026-05-04 14:34 | 37.84419 | 11.85147 | 33085 ft | 491 kts | 143° |
| 2026-05-04 14:34 | 37.79157 | 11.90668 | 33087 ft | 492 kts | 143° |
| 2026-05-04 14:35 | 37.73887 | 11.96188 | 33094 ft | 492 kts | 143° |
| 2026-05-04 14:35 | 37.68613 | 12.01701 | 33094 ft | 492 kts | 143° |
| 2026-05-04 14:36 | 37.63332 | 12.07210 | 33087 ft | 493 kts | 143° |
| 2026-05-04 14:36 | 37.58039 | 12.12721 | 33090 ft | 494 kts | 143° |
| 2026-05-04 14:37 | 37.52731 | 12.18238 | 33103 ft | 499 kts | 143° |
| 2026-05-04 14:37 | 37.47282 | 12.23887 | 33117 ft | 514 kts | 143° |
| 2026-05-04 14:38 | 37.41750 | 12.29617 | 33114 ft | 515 kts | 143° |
| 2026-05-04 14:38 | 37.36215 | 12.35339 | 33123 ft | 515 kts | 143° |
| 2026-05-04 14:39 | 37.30679 | 12.41050 | 33119 ft | 515 kts | 143° |
| 2026-05-04 14:39 | 37.25128 | 12.46768 | 33119 ft | 515 kts | 143° |